KTTD/TTD METAR and TAF weather

Enter ICAO airport designator
Station Type Date Time Source
KTTD METAR 2019/09/21 04:53 UTC NOAA

KTTD 210453Z 00000KT 10SM SCT040 16/13 A3013 RMK AO2 RAB28E37 SLP203 P0000 T01560128


Station Type Date Time Source
KTTD Decoded METAR 2019/09/21 04:53 UTC NOAA

PORTLAND-TROUTDALE AIRPORT, OR, United States (KTTD) 45-33N 122-25W 14M
Sep 21, 2019 - 12:53 AM EDT / 2019.09.21 0453 UTC
Wind: Calm:0
Visibility: 10 mile(s):0
Sky conditions: partly cloudy
Precipitation last hour: A trace
Temperature: 60.1 F (15.6 C)
Dew Point: 55.0 F (12.8 C)
Relative Humidity: 83%
Pressure (altimeter): 30.13 in. Hg (1020 hPa)
ob: KTTD 210453Z 00000KT 10SM SCT040 16/13 A3013 RMK AO2 RAB28E37 SLP203 P0000 T01560128
cycle: 5

Station Type Date Time Source
KTTD TAF 2019/09/21 06:22 UTC NOAA

TAF KTTD 210520Z 2106/2206 VRB03KT P6SM BKN040
FM211200 00000KT P6SM OVC015
FM211800 27002KT P6SM OVC050

Example: see airport list